createdAt,value
2023-02-15T00:02:16.962Z,13.98
2023-02-15T00:04:58.978Z,13.96
2023-02-15T00:07:47.841Z,13.91
2023-02-15T00:10:36.643Z,13.79
2023-02-15T00:13:25.798Z,13.72
2023-02-15T00:16:17.115Z,13.69
2023-02-15T00:19:01.835Z,13.82
2023-02-15T00:21:44.006Z,13.75
2023-02-15T00:24:34.787Z,13.63
2023-02-15T00:27:23.836Z,13.60
2023-02-15T00:30:06.105Z,13.55
2023-02-15T00:32:56.798Z,13.47
2023-02-15T00:35:39.054Z,13.46
2023-02-15T00:38:27.818Z,13.43
2023-02-15T00:41:12.114Z,13.38
2023-02-15T00:44:00.785Z,13.37
2023-02-15T00:46:44.161Z,13.36
2023-02-15T00:49:32.796Z,13.38
2023-02-15T00:52:15.077Z,13.33
2023-02-15T00:55:04.901Z,13.31
2023-02-15T00:57:47.048Z,13.31
2023-02-15T01:00:35.792Z,13.38
2023-02-15T01:03:24.775Z,13.33
2023-02-15T01:06:07.337Z,13.39
2023-02-15T01:08:55.818Z,13.32
2023-02-15T01:11:45.089Z,13.30
2023-02-15T01:14:27.440Z,13.19
2023-02-15T01:17:15.022Z,13.13
2023-02-15T01:19:57.825Z,13.02
2023-02-15T01:22:40.193Z,13.00
2023-02-15T01:25:28.750Z,13.02
2023-02-15T01:28:18.026Z,13.05
2023-02-15T01:31:00.896Z,13.02
2023-02-15T01:33:50.014Z,13.02
2023-02-15T01:36:32.797Z,12.99
2023-02-15T01:39:21.770Z,13.03
2023-02-15T01:42:05.055Z,13.06
2023-02-15T01:45:07.743Z,13.13
2023-02-15T01:47:57.085Z,13.24
2023-02-15T01:50:49.738Z,13.30
2023-02-15T01:56:47.811Z,13.41
2023-02-15T01:59:32.179Z,13.43
2023-02-15T02:02:23.838Z,13.43
2023-02-15T02:05:14.331Z,13.52
2023-02-15T02:08:06.839Z,13.57
2023-02-15T02:10:49.037Z,13.62
2023-02-15T02:13:37.765Z,13.69
2023-02-15T02:16:35.725Z,13.79
2023-02-15T02:19:49.160Z,13.90
2023-02-15T02:22:55.756Z,14.00
2023-02-15T02:26:09.128Z,14.12
2023-02-15T02:29:34.788Z,14.22
2023-02-15T02:32:16.956Z,14.32
2023-02-15T02:35:23.745Z,14.35
2023-02-15T02:38:37.752Z,14.45
2023-02-15T02:41:26.048Z,14.56
2023-02-15T02:44:27.807Z,14.73
2023-02-15T02:47:39.052Z,15.03
2023-02-15T02:50:34.754Z,15.27
2023-02-15T02:53:25.777Z,15.57
2023-02-15T02:56:41.799Z,15.83
2023-02-15T02:59:39.827Z,16.56
2023-02-15T03:02:38.843Z,17.41
2023-02-15T03:05:34.710Z,18.35
2023-02-15T03:08:23.873Z,18.81
2023-02-15T03:11:15.760Z,19.51
2023-02-15T03:14:07.054Z,19.88
2023-02-15T03:16:51.822Z,20.08
2023-02-15T03:19:38.862Z,20.54
2023-02-15T03:22:35.759Z,21.26
2023-02-15T03:25:35.084Z,20.99
2023-02-15T03:28:30.713Z,21.59
2023-02-15T03:31:23.869Z,22.08
2023-02-15T03:34:15.004Z,21.97
2023-02-15T03:37:22.738Z,22.15
2023-02-15T03:40:36.761Z,22.40
2023-02-15T03:44:01.800Z,23.30
2023-02-15T03:47:00.848Z,23.75
2023-02-15T03:49:58.106Z,24.04
2023-02-15T03:52:46.838Z,23.50
2023-02-15T03:55:29.026Z,24.93
2023-02-15T03:58:35.776Z,25.19
2023-02-15T04:01:59.159Z,24.98
2023-02-15T04:04:55.732Z,24.69
2023-02-15T04:07:38.105Z,23.89
2023-02-15T04:10:44.761Z,23.80
2023-02-15T04:13:53.831Z,23.41
2023-02-15T04:16:42.110Z,22.55
2023-02-15T04:19:42.739Z,23.47
2023-02-15T04:22:49.757Z,23.78
2023-02-15T04:25:32.229Z,23.67
2023-02-15T04:28:20.759Z,24.30
2023-02-15T04:31:09.784Z,24.97
2023-02-15T04:33:51.922Z,23.75
2023-02-15T04:36:40.708Z,24.21
2023-02-15T04:39:22.985Z,24.81
2023-02-15T04:42:11.762Z,24.40
2023-02-15T04:45:07.551Z,24.24
2023-02-15T04:47:56.801Z,24.60
2023-02-15T04:50:39.026Z,24.66
2023-02-15T04:53:27.798Z,24.76
2023-02-15T04:56:10.085Z,25.38
2023-02-15T04:58:58.795Z,25.73
2023-02-15T05:01:41.002Z,25.20
2023-02-15T05:04:29.813Z,25.19
2023-02-15T05:07:18.741Z,25.73
2023-02-15T05:10:00.999Z,25.78
2023-02-15T05:12:49.819Z,25.95
2023-02-15T05:15:39.052Z,26.08
2023-02-15T05:18:20.705Z,25.87
2023-02-15T05:21:08.975Z,25.86
2023-02-15T05:23:51.735Z,25.51
2023-02-15T05:26:59.707Z,25.94
2023-02-15T05:29:41.800Z,26.35
2023-02-15T05:32:24.231Z,26.31
2023-02-15T05:35:12.714Z,26.27
2023-02-15T05:37:55.202Z,26.17
2023-02-15T05:40:43.783Z,26.28
2023-02-15T05:43:40.737Z,26.49
2023-02-15T05:46:30.320Z,26.61
2023-02-15T05:49:12.754Z,26.48
2023-02-15T05:51:55.259Z,26.35
2023-02-15T05:54:43.759Z,26.64
2023-02-15T05:57:32.042Z,26.83
2023-02-15T06:00:14.870Z,26.60
2023-02-15T06:03:03.104Z,26.59
2023-02-15T06:05:45.831Z,26.91
2023-02-15T06:08:34.112Z,26.48
2023-02-15T06:11:16.786Z,26.68
2023-02-15T06:14:05.489Z,26.44
2023-02-15T06:16:48.783Z,26.55
2023-02-15T06:19:37.041Z,26.66
2023-02-15T06:22:19.709Z,26.88
2023-02-15T06:25:08.051Z,26.81
2023-02-15T06:27:51.758Z,26.80
2023-02-15T06:30:41.115Z,27.09
2023-02-15T06:33:22.842Z,26.97
2023-02-15T06:36:12.013Z,26.99
2023-02-15T06:38:53.834Z,27.00
2023-02-15T06:41:41.989Z,26.69
2023-02-15T06:44:36.795Z,27.03
2023-02-15T06:47:26.155Z,26.97
2023-02-15T06:50:07.782Z,27.05
2023-02-15T06:52:56.041Z,27.05
2023-02-15T06:55:38.723Z,27.02
2023-02-15T06:58:28.216Z,27.15
2023-02-15T07:01:11.172Z,27.06
2023-02-15T07:03:59.118Z,27.09
2023-02-15T07:06:42.860Z,26.91
2023-02-15T07:09:32.100Z,27.03
2023-02-15T07:12:33.789Z,27.15
2023-02-15T07:15:29.779Z,27.09
2023-02-15T07:18:12.779Z,26.96
2023-02-15T07:21:01.680Z,26.73
2023-02-15T07:23:46.071Z,26.76
2023-02-15T07:26:35.693Z,26.87
2023-02-15T07:29:18.279Z,26.95
2023-02-15T07:32:06.748Z,27.04
2023-02-15T07:34:50.153Z,26.99
2023-02-15T07:37:38.684Z,27.06
2023-02-15T07:40:21.187Z,27.06
2023-02-15T07:43:09.800Z,27.03
2023-02-15T07:45:58.064Z,27.02
2023-02-15T07:48:41.816Z,27.17
2023-02-15T07:51:30.204Z,27.02
2023-02-15T07:54:12.779Z,26.99
2023-02-15T07:57:02.184Z,26.99
2023-02-15T07:59:43.706Z,27.02
2023-02-15T08:02:32.341Z,27.14
2023-02-15T08:05:14.768Z,27.09
2023-02-15T08:07:56.943Z,27.22
2023-02-15T08:11:04.806Z,27.15
2023-02-15T08:13:58.323Z,27.09
2023-02-15T08:16:51.163Z,27.12
2023-02-15T08:19:41.156Z,27.15
2023-02-15T08:22:23.698Z,27.26
2023-02-15T08:25:13.197Z,27.19
2023-02-15T08:27:54.773Z,27.04
2023-02-15T08:30:43.118Z,26.91
2023-02-15T08:33:26.806Z,26.99
2023-02-15T08:36:19.211Z,27.00
2023-02-15T08:39:01.769Z,26.97
2023-02-15T08:41:55.168Z,26.95
2023-02-15T08:44:50.465Z,26.99
2023-02-15T08:47:39.027Z,26.87
2023-02-15T08:50:21.796Z,26.76
2023-02-15T08:53:12.816Z,26.70
2023-02-15T08:55:55.820Z,26.62
2023-02-15T08:58:45.176Z,26.61
2023-02-15T09:01:29.809Z,26.62
2023-02-15T09:04:19.046Z,26.54
2023-02-15T09:07:01.732Z,26.37
2023-02-15T09:09:50.020Z,26.33
2023-02-15T09:12:31.741Z,26.43
2023-02-15T09:15:20.142Z,26.56
2023-02-15T09:18:02.746Z,26.50
2023-02-15T09:20:53.458Z,26.48
2023-02-15T09:23:37.088Z,26.45
2023-02-15T09:26:31.030Z,26.44
2023-02-15T09:29:12.855Z,26.36
2023-02-15T09:31:55.680Z,26.27
2023-02-15T09:34:44.700Z,26.16
2023-02-15T09:37:33.858Z,26.04
2023-02-15T09:40:16.760Z,26.04
2023-02-15T09:43:19.340Z,25.99
2023-02-15T09:46:49.769Z,25.90
2023-02-15T09:50:21.983Z,25.91
2023-02-15T09:53:06.768Z,25.88
2023-02-15T09:56:07.089Z,25.83
2023-02-15T09:58:57.795Z,25.72
2023-02-15T10:01:54.004Z,25.73
2023-02-15T10:04:38.906Z,25.55
2023-02-15T10:07:50.013Z,25.56
2023-02-15T10:10:44.735Z,25.63
2023-02-15T10:13:48.106Z,25.65
2023-02-15T10:17:00.855Z,25.61
2023-02-15T10:20:07.560Z,25.59
2023-02-15T10:23:01.782Z,25.58
2023-02-15T10:26:15.913Z,25.49
2023-02-15T10:28:57.823Z,25.42
2023-02-15T10:31:56.210Z,25.41
2023-02-15T10:34:48.804Z,25.37
2023-02-15T10:37:50.145Z,25.27
2023-02-15T10:40:46.684Z,25.25
2023-02-15T10:43:53.804Z,25.30
2023-02-15T10:47:27.752Z,25.23
2023-02-15T10:50:52.776Z,25.13
2023-02-15T10:53:53.021Z,25.06
2023-02-15T10:56:56.772Z,25.02
2023-02-15T10:59:50.180Z,24.97
2023-02-15T11:02:50.784Z,24.82
2023-02-15T11:06:02.028Z,24.77
2023-02-15T11:09:04.702Z,24.58
2023-02-15T11:11:49.064Z,24.54
2023-02-15T11:15:12.762Z,24.52
2023-02-15T11:18:05.110Z,24.46
2023-02-15T11:21:18.717Z,24.46
2023-02-15T11:24:01.038Z,24.48
2023-02-15T11:27:13.782Z,24.44
2023-02-15T11:30:20.353Z,24.34
2023-02-15T11:33:13.826Z,24.24
2023-02-15T11:36:08.016Z,24.16
2023-02-15T11:39:01.698Z,24.20
2023-02-15T11:41:53.231Z,24.16
2023-02-15T11:44:51.148Z,24.17
2023-02-15T11:47:32.980Z,24.03
2023-02-15T11:50:30.723Z,23.91
2023-02-15T11:53:32.258Z,23.88
2023-02-15T11:56:25.862Z,23.80
2023-02-15T11:59:19.959Z,23.71
2023-02-15T12:02:08.690Z,23.63
2023-02-15T12:04:56.073Z,23.55
2023-02-15T12:08:12.743Z,23.47
2023-02-15T12:11:33.963Z,23.34
2023-02-15T12:14:26.233Z,23.21
2023-02-15T12:17:09.245Z,23.15
2023-02-15T12:20:00.728Z,23.06
2023-02-15T12:22:52.737Z,22.97
2023-02-15T12:25:46.009Z,22.87
2023-02-15T12:28:47.872Z,22.82
2023-02-15T12:31:51.143Z,22.78
2023-02-15T12:34:35.667Z,22.64
2023-02-15T12:37:32.773Z,22.58
2023-02-15T12:40:34.179Z,22.49
2023-02-15T12:43:46.805Z,22.35
2023-02-15T12:46:38.903Z,22.38
2023-02-15T12:49:29.782Z,22.21
2023-02-15T12:52:22.135Z,22.12
2023-02-15T12:55:10.753Z,21.99
2023-02-15T12:58:27.221Z,21.89
2023-02-15T13:01:19.795Z,21.82
2023-02-15T13:04:14.003Z,21.75
2023-02-15T13:07:00.727Z,21.71
2023-02-15T13:09:43.212Z,21.74
2023-02-15T13:12:38.731Z,21.59
2023-02-15T13:15:45.853Z,21.54
2023-02-15T13:18:42.227Z,21.42
2023-02-15T13:21:40.697Z,21.23
2023-02-15T13:24:42.227Z,21.06
2023-02-15T13:27:36.821Z,21.02
2023-02-15T13:30:43.705Z,20.93
2023-02-15T13:33:36.822Z,20.91
2023-02-15T13:36:28.061Z,20.83
2023-02-15T13:39:39.684Z,20.72
2023-02-15T13:42:50.167Z,20.78
2023-02-15T13:45:48.731Z,20.65
2023-02-15T13:48:57.986Z,20.48
2023-02-15T13:52:02.792Z,20.38
2023-02-15T13:54:54.183Z,20.28
2023-02-15T13:57:47.827Z,20.26
2023-02-15T14:00:46.254Z,20.23
2023-02-15T14:04:02.864Z,20.15
2023-02-15T14:07:12.089Z,19.97
2023-02-15T14:10:03.695Z,19.86
2023-02-15T14:13:17.238Z,19.86
2023-02-15T14:16:12.846Z,19.78
2023-02-15T14:19:18.060Z,19.69
2023-02-15T14:22:16.796Z,19.66
2023-02-15T14:25:23.709Z,19.60
2023-02-15T14:28:28.919Z,19.59
2023-02-15T14:31:21.857Z,19.42
2023-02-15T14:34:08.588Z,19.39
2023-02-15T14:37:00.723Z,19.37
2023-02-15T14:40:10.650Z,19.31
2023-02-15T14:43:37.768Z,19.24
2023-02-15T14:47:02.021Z,19.20
2023-02-15T14:49:48.771Z,19.18
2023-02-15T14:52:38.106Z,19.09
2023-02-15T14:55:46.727Z,19.06
2023-02-15T14:58:29.042Z,18.97
2023-02-15T15:01:26.808Z,18.97
2023-02-15T15:04:22.036Z,18.94
2023-02-15T15:07:09.082Z,18.86
2023-02-15T15:10:32.197Z,18.79
2023-02-15T15:13:44.795Z,18.79
2023-02-15T15:16:32.320Z,18.81
2023-02-15T15:19:25.756Z,18.78
2023-02-15T15:22:13.981Z,18.74
2023-02-15T15:25:02.736Z,18.68
2023-02-15T15:27:56.110Z,18.67
2023-02-15T15:30:48.838Z,18.65
2023-02-15T15:34:12.437Z,18.59
2023-02-15T15:37:30.792Z,18.53
2023-02-15T15:40:41.388Z,18.49
2023-02-15T15:43:49.873Z,18.42
2023-02-15T15:46:44.072Z,18.40
2023-02-15T15:49:27.662Z,18.34
2023-02-15T15:52:28.131Z,18.29
2023-02-15T15:55:23.698Z,18.23
2023-02-15T15:58:09.470Z,18.18
2023-02-15T16:01:04.755Z,18.19
2023-02-15T16:04:02.121Z,18.18
2023-02-15T16:06:46.677Z,18.13
2023-02-15T16:09:37.066Z,18.11
2023-02-15T16:12:26.838Z,18.10
2023-02-15T16:15:33.084Z,18.01
2023-02-15T16:18:15.729Z,17.99
2023-02-15T16:21:10.046Z,18.01
2023-02-15T16:24:03.746Z,17.98
2023-02-15T16:27:00.700Z,17.89
2023-02-15T16:29:49.788Z,17.84
2023-02-15T16:32:40.902Z,17.84
2023-02-15T16:35:28.168Z,17.83
2023-02-15T16:38:20.885Z,17.74
2023-02-15T16:41:06.130Z,17.72
2023-02-15T16:43:57.723Z,17.69
2023-02-15T16:46:57.647Z,17.67
2023-02-15T16:49:47.805Z,17.68
2023-02-15T16:52:34.141Z,17.69
2023-02-15T16:55:37.913Z,17.67
2023-02-15T16:58:26.235Z,17.62
2023-02-15T17:01:17.781Z,17.63
2023-02-15T17:04:19.039Z,17.53
2023-02-15T17:07:14.745Z,17.51
2023-02-15T17:10:04.960Z,17.44
2023-02-15T17:13:06.711Z,17.42
2023-02-15T17:16:13.114Z,17.43
2023-02-15T17:19:02.743Z,17.45
2023-02-15T17:21:52.245Z,17.41
2023-02-15T17:24:45.710Z,17.37
2023-02-15T17:27:31.200Z,17.35
2023-02-15T17:30:29.805Z,17.32
2023-02-15T17:33:12.985Z,17.27
2023-02-15T17:36:20.768Z,17.27
2023-02-15T17:39:06.062Z,17.22
2023-02-15T17:41:55.657Z,17.21
2023-02-15T17:44:37.998Z,17.15
2023-02-15T17:47:38.921Z,17.13
2023-02-15T17:50:34.023Z,17.11
2023-02-15T17:53:17.767Z,17.12
2023-02-15T17:56:00.088Z,17.07
2023-02-15T17:58:49.860Z,16.98
2023-02-15T18:01:57.392Z,16.98
2023-02-15T18:05:02.746Z,16.92
2023-02-15T18:08:03.240Z,16.88
2023-02-15T18:11:09.769Z,16.87
2023-02-15T18:14:02.483Z,16.83
2023-02-15T18:16:50.801Z,16.79
2023-02-15T18:19:48.184Z,16.82
2023-02-15T18:22:31.145Z,16.88
2023-02-15T18:25:22.038Z,16.76
2023-02-15T18:28:10.711Z,16.70
2023-02-15T18:30:59.762Z,16.61
2023-02-15T18:33:46.180Z,16.62
2023-02-15T18:36:41.759Z,16.55
2023-02-15T18:39:36.143Z,16.50
2023-02-15T18:42:36.753Z,16.53
2023-02-15T18:45:44.748Z,16.55
2023-02-15T18:48:33.014Z,16.51
2023-02-15T18:51:25.676Z,16.52
2023-02-15T18:54:18.370Z,16.50
2023-02-15T18:57:12.712Z,16.50
2023-02-15T19:00:02.246Z,16.47
2023-02-15T19:02:44.843Z,16.45
2023-02-15T19:05:29.403Z,16.41
2023-02-15T19:08:19.826Z,16.45
2023-02-15T19:11:08.979Z,16.42
2023-02-15T19:13:51.781Z,16.41
2023-02-15T19:16:43.061Z,16.39
2023-02-15T19:19:25.736Z,16.38
2023-02-15T19:22:18.022Z,16.39
2023-02-15T19:25:02.146Z,16.35
2023-02-15T19:27:50.129Z,16.36
2023-02-15T19:30:40.057Z,16.38
2023-02-15T19:33:29.086Z,16.37
2023-02-15T19:36:11.902Z,16.34
2023-02-15T19:39:02.006Z,16.33
2023-02-15T19:41:44.737Z,16.31
2023-02-15T19:44:32.982Z,16.33
2023-02-15T19:47:21.627Z,16.29
2023-02-15T19:50:04.957Z,16.23
2023-02-15T19:52:54.710Z,16.20
2023-02-15T19:55:40.042Z,16.20
2023-02-15T19:58:29.739Z,16.22
2023-02-15T20:01:12.230Z,16.29
2023-02-15T20:04:00.723Z,16.23
2023-02-15T20:06:43.017Z,16.18
2023-02-15T20:09:34.766Z,16.15
2023-02-15T20:12:33.034Z,16.11
2023-02-15T20:15:34.786Z,16.09
2023-02-15T20:18:19.246Z,16.05
2023-02-15T20:21:10.669Z,16.01
2023-02-15T20:23:52.977Z,16.07
2023-02-15T20:26:41.840Z,16.05
2023-02-15T20:29:25.979Z,16.03
2023-02-15T20:32:14.761Z,16.06
2023-02-15T20:34:57.001Z,16.04
2023-02-15T20:37:45.750Z,16.01
2023-02-15T20:40:32.114Z,15.96
2023-02-15T20:43:23.694Z,16.00
2023-02-15T20:46:13.012Z,16.01
2023-02-15T20:48:55.688Z,15.95
2023-02-15T20:51:45.583Z,15.92
2023-02-15T20:54:31.708Z,15.86
2023-02-15T20:57:20.908Z,15.83
2023-02-15T21:00:03.812Z,15.80
2023-02-15T21:03:01.979Z,15.72
2023-02-15T21:05:43.695Z,15.72
2023-02-15T21:08:34.198Z,15.68
2023-02-15T21:11:28.818Z,15.65
2023-02-15T21:14:28.135Z,15.64
2023-02-15T21:17:10.646Z,15.60
2023-02-15T21:20:05.666Z,15.55
2023-02-15T21:22:55.010Z,15.54
2023-02-15T21:25:45.661Z,15.49
2023-02-15T21:28:36.021Z,15.49
2023-02-15T21:31:26.801Z,15.49
2023-02-15T21:34:15.063Z,15.45
2023-02-15T21:36:58.664Z,15.42
2023-02-15T21:39:47.697Z,15.41
2023-02-15T21:42:48.474Z,15.40
2023-02-15T21:45:55.734Z,15.37
2023-02-15T21:48:38.025Z,15.34
2023-02-15T21:51:46.561Z,15.34
2023-02-15T21:54:35.644Z,15.30
2023-02-15T21:57:21.085Z,15.31
2023-02-15T22:00:10.717Z,15.31
2023-02-15T22:03:04.947Z,15.29
2023-02-15T22:05:47.633Z,15.30
2023-02-15T22:08:36.718Z,15.26
2023-02-15T22:11:24.948Z,15.26
2023-02-15T22:14:13.603Z,15.23
2023-02-15T22:16:55.951Z,15.21
2023-02-15T22:19:44.663Z,15.19
2023-02-15T22:22:27.254Z,15.18
2023-02-15T22:25:15.718Z,15.17
2023-02-15T22:27:59.905Z,15.17
2023-02-15T22:30:48.654Z,15.15
2023-02-15T22:33:48.642Z,15.15
2023-02-15T22:36:38.933Z,15.16
2023-02-15T22:39:20.709Z,15.15
2023-02-15T22:42:02.886Z,15.12
2023-02-15T22:44:51.649Z,15.13
2023-02-15T22:47:37.094Z,15.12
2023-02-15T22:50:41.726Z,15.12
2023-02-15T22:53:30.970Z,15.14
2023-02-15T22:56:16.719Z,15.12
2023-02-15T22:59:03.627Z,15.08
2023-02-15T23:01:53.653Z,15.07
2023-02-15T23:04:41.949Z,15.06
2023-02-15T23:07:26.610Z,14.99
2023-02-15T23:10:25.058Z,14.98
2023-02-15T23:13:26.651Z,14.99
2023-02-15T23:16:21.067Z,14.96
2023-02-15T23:19:03.771Z,14.99
2023-02-15T23:21:46.034Z,14.95
2023-02-15T23:24:36.637Z,14.90
2023-02-15T23:27:45.487Z,14.90
2023-02-15T23:30:28.699Z,14.88
2023-02-15T23:33:19.930Z,14.80
2023-02-15T23:36:02.646Z,14.75
2023-02-15T23:38:44.855Z,14.78
2023-02-15T23:41:38.637Z,14.73
2023-02-15T23:44:21.260Z,14.68
2023-02-15T23:47:09.707Z,14.65
2023-02-15T23:49:57.923Z,14.59
2023-02-15T23:52:39.644Z,14.58
2023-02-15T23:55:28.961Z,14.58
2023-02-15T23:58:19.681Z,14.59
